createdAt,value
2022-10-13T00:00:14.190Z,14.05
2022-10-13T00:02:40.686Z,14.14
2022-10-13T00:05:07.460Z,14.08
2022-10-13T00:07:34.158Z,14.05
2022-10-13T00:10:00.665Z,14.04
2022-10-13T00:12:27.163Z,13.98
2022-10-13T00:14:53.747Z,13.91
2022-10-13T00:17:20.248Z,13.94
2022-10-13T00:19:46.883Z,14.00
2022-10-13T00:22:13.360Z,13.96
2022-10-13T00:24:39.829Z,13.99
2022-10-13T00:27:06.313Z,13.98
2022-10-13T00:29:32.786Z,14.02
2022-10-13T00:31:59.305Z,14.09
2022-10-13T00:34:25.847Z,14.14
2022-10-13T00:36:52.351Z,14.41
2022-10-13T00:39:18.848Z,14.62
2022-10-13T00:41:45.359Z,14.47
2022-10-13T00:44:50.549Z,14.66
2022-10-13T00:47:17.569Z,14.62
2022-10-13T00:49:44.362Z,14.78
2022-10-13T00:52:11.428Z,14.82
2022-10-13T00:54:38.077Z,14.65
2022-10-13T00:57:05.055Z,14.59
2022-10-13T00:59:31.775Z,14.66
2022-10-13T01:02:00.098Z,14.58
2022-10-13T01:04:31.870Z,14.60
2022-10-13T01:06:58.632Z,14.53
2022-10-13T01:09:25.168Z,14.52
2022-10-13T01:12:02.910Z,14.25
2022-10-13T01:14:47.122Z,14.04
2022-10-13T01:17:18.919Z,14.04
2022-10-13T01:20:20.732Z,13.89
2022-10-13T01:23:25.053Z,14.11
2022-10-13T01:26:12.695Z,14.10
2022-10-13T01:29:13.182Z,14.27
2022-10-13T01:31:42.569Z,14.42
2022-10-13T01:34:17.644Z,14.45
2022-10-13T01:36:58.961Z,14.36
2022-10-13T01:39:44.530Z,14.37
2022-10-13T01:42:20.091Z,14.60
2022-10-13T01:44:53.312Z,14.64
2022-10-13T01:47:22.122Z,14.63
2022-10-13T01:49:50.763Z,14.61
2022-10-13T01:52:20.464Z,14.62
2022-10-13T01:54:54.072Z,14.66
2022-10-13T01:57:39.673Z,14.54
2022-10-13T02:00:10.419Z,14.87
2022-10-13T02:02:43.726Z,14.81
2022-10-13T02:05:10.408Z,14.81
2022-10-13T02:07:46.115Z,14.75
2022-10-13T02:10:21.771Z,14.81
2022-10-13T02:13:01.451Z,14.83
2022-10-13T02:15:39.457Z,14.83
2022-10-13T02:18:08.638Z,14.84
2022-10-13T02:20:36.660Z,14.94
2022-10-13T02:23:09.192Z,15.00
2022-10-13T02:25:36.549Z,15.04
2022-10-13T02:28:04.079Z,15.09
2022-10-13T02:30:33.150Z,15.18
2022-10-13T02:33:01.637Z,15.49
2022-10-13T02:35:29.887Z,15.25
2022-10-13T02:37:56.874Z,15.21
2022-10-13T02:40:23.356Z,15.29
2022-10-13T02:42:49.907Z,15.13
2022-10-13T02:45:16.799Z,15.05
2022-10-13T02:47:43.478Z,14.96
2022-10-13T02:50:10.691Z,14.93
2022-10-13T02:52:37.630Z,14.90
2022-10-13T02:55:04.630Z,14.92
2022-10-13T02:57:31.212Z,15.18
2022-10-13T02:59:57.713Z,15.11
2022-10-13T03:02:25.827Z,15.24
2022-10-13T03:04:52.404Z,15.23
2022-10-13T03:07:18.976Z,15.16
2022-10-13T03:09:45.451Z,15.02
2022-10-13T03:12:11.974Z,14.73
2022-10-13T03:14:38.477Z,14.84
2022-10-13T03:17:08.754Z,14.94
2022-10-13T03:19:37.629Z,14.90
2022-10-13T03:22:04.139Z,14.98
2022-10-13T03:24:30.758Z,15.18
2022-10-13T03:26:57.266Z,15.09
2022-10-13T03:29:23.764Z,14.99
2022-10-13T03:31:50.343Z,15.14
2022-10-13T03:34:17.631Z,15.20
2022-10-13T03:36:44.185Z,15.07
2022-10-13T03:39:10.851Z,15.38
2022-10-13T03:41:37.390Z,15.25
2022-10-13T03:44:04.023Z,15.30
2022-10-13T03:46:31.713Z,15.49
2022-10-13T03:48:58.386Z,15.49
2022-10-13T03:51:25.363Z,15.57
2022-10-13T03:53:52.767Z,15.53
2022-10-13T03:56:25.265Z,15.47
2022-10-13T03:58:56.188Z,15.48
2022-10-13T04:01:24.792Z,15.47
2022-10-13T04:03:53.984Z,15.66
2022-10-13T04:06:20.555Z,15.45
2022-10-13T04:08:47.680Z,15.51
2022-10-13T04:11:15.412Z,15.40
2022-10-13T04:13:42.478Z,15.45
2022-10-13T04:16:13.906Z,15.66
2022-10-13T04:18:44.529Z,15.58
2022-10-13T04:21:14.113Z,15.57
2022-10-13T04:23:40.600Z,15.46
2022-10-13T04:26:07.142Z,15.49
2022-10-13T04:28:35.930Z,15.37
2022-10-13T04:31:03.619Z,15.25
2022-10-13T04:33:30.694Z,15.20
2022-10-13T04:35:57.601Z,15.06
2022-10-13T04:38:24.292Z,15.12
2022-10-13T04:40:50.791Z,15.13
2022-10-13T04:43:17.315Z,15.11
2022-10-13T04:45:43.910Z,15.04
2022-10-13T04:48:10.776Z,15.04
2022-10-13T04:50:37.725Z,15.17
2022-10-13T04:53:04.605Z,15.14
2022-10-13T04:55:31.352Z,15.11
2022-10-13T04:57:58.061Z,15.10
2022-10-13T05:00:24.807Z,15.16
2022-10-13T05:02:51.766Z,15.22
2022-10-13T05:05:18.642Z,15.17
2022-10-13T05:07:45.146Z,15.24
2022-10-13T05:10:11.845Z,15.14
2022-10-13T05:12:38.373Z,15.16
2022-10-13T05:15:05.266Z,15.08
2022-10-13T05:17:35.233Z,15.02
2022-10-13T05:20:02.191Z,15.17
2022-10-13T05:22:28.775Z,15.16
2022-10-13T05:24:55.326Z,15.21
2022-10-13T05:27:23.209Z,15.11
2022-10-13T05:29:49.785Z,14.90
2022-10-13T05:32:16.383Z,14.93
2022-10-13T05:34:42.955Z,14.87
2022-10-13T05:37:09.864Z,15.04
2022-10-13T05:39:36.707Z,14.96
2022-10-13T05:42:03.643Z,15.08
2022-10-13T05:44:30.692Z,15.21
2022-10-13T05:46:57.568Z,14.92
2022-10-13T05:49:24.333Z,15.03
2022-10-13T05:51:55.689Z,14.93
2022-10-13T05:54:30.991Z,14.86
2022-10-13T05:57:02.248Z,14.91
2022-10-13T05:59:32.963Z,14.96
2022-10-13T06:02:01.667Z,14.91
2022-10-13T06:04:38.923Z,14.87
2022-10-13T06:07:05.634Z,14.83
2022-10-13T06:09:38.045Z,14.80
2022-10-13T06:12:06.561Z,14.77
2022-10-13T06:14:33.289Z,14.76
2022-10-13T06:16:59.863Z,14.79
2022-10-13T06:19:29.161Z,14.79
2022-10-13T06:21:57.176Z,14.68
2022-10-13T06:24:25.405Z,14.78
2022-10-13T06:26:51.928Z,14.61
2022-10-13T06:29:18.477Z,14.69
2022-10-13T06:31:45.012Z,14.66
2022-10-13T06:34:12.269Z,14.69
2022-10-13T06:36:38.997Z,14.72
2022-10-13T06:39:05.511Z,14.78
2022-10-13T06:41:32.043Z,14.79
2022-10-13T06:43:58.547Z,14.78
2022-10-13T06:46:25.570Z,14.83
2022-10-13T06:48:52.373Z,14.78
2022-10-13T06:51:19.341Z,14.86
2022-10-13T06:53:45.862Z,14.84
2022-10-13T06:56:12.612Z,14.85
2022-10-13T06:58:39.130Z,14.81
2022-10-13T07:01:06.527Z,14.92
2022-10-13T07:03:33.358Z,14.89
2022-10-13T07:06:04.748Z,14.96
2022-10-13T07:08:32.541Z,15.13
2022-10-13T07:10:59.218Z,15.25
2022-10-13T07:13:26.259Z,15.22
2022-10-13T07:15:53.002Z,15.40
2022-10-13T07:18:19.877Z,15.25
2022-10-13T07:20:46.854Z,15.31
2022-10-13T07:23:13.521Z,15.23
2022-10-13T07:25:40.075Z,15.19
2022-10-13T07:28:09.935Z,15.21
2022-10-13T07:30:39.144Z,15.27
2022-10-13T07:33:05.648Z,15.23
2022-10-13T07:35:32.514Z,15.41
2022-10-13T07:37:59.035Z,15.69
2022-10-13T07:40:25.692Z,15.61
2022-10-13T07:42:52.237Z,15.77
2022-10-13T07:45:18.791Z,15.46
2022-10-13T07:47:45.286Z,15.67
2022-10-13T07:50:11.958Z,15.75
2022-10-13T07:52:38.694Z,15.80
2022-10-13T07:55:05.934Z,15.71
2022-10-13T07:57:32.473Z,15.66
2022-10-13T07:59:59.087Z,15.76
2022-10-13T08:02:26.298Z,15.78
2022-10-13T08:04:52.927Z,15.83
2022-10-13T08:07:19.673Z,15.95
2022-10-13T08:09:46.364Z,15.92
2022-10-13T08:12:12.867Z,16.08
2022-10-13T08:14:39.527Z,16.21
2022-10-13T08:17:06.234Z,16.17
2022-10-13T08:19:32.762Z,16.16
2022-10-13T08:22:00.283Z,16.18
2022-10-13T08:24:28.040Z,16.33
2022-10-13T08:26:57.990Z,16.59
2022-10-13T08:29:26.938Z,16.55
2022-10-13T08:31:55.401Z,16.54
2022-10-13T08:34:23.897Z,16.77
2022-10-13T08:36:53.646Z,16.76
2022-10-13T08:39:21.783Z,16.81
2022-10-13T08:41:48.381Z,16.59
2022-10-13T08:47:16.047Z,16.77
2022-10-13T08:49:43.661Z,17.18
2022-10-13T08:52:19.093Z,18.18
2022-10-13T08:54:46.381Z,18.58
2022-10-13T08:57:13.304Z,18.83
2022-10-13T08:59:39.965Z,18.69
2022-10-13T09:02:33.005Z,18.32
2022-10-13T09:05:03.325Z,18.22
2022-10-13T09:07:35.277Z,18.36
2022-10-13T09:10:01.812Z,18.48
2022-10-13T09:12:28.336Z,18.31
2022-10-13T09:15:05.428Z,18.52
2022-10-13T09:17:33.929Z,18.72
2022-10-13T09:20:27.722Z,18.77
2022-10-13T09:23:02.359Z,18.83
2022-10-13T09:25:29.581Z,18.87
2022-10-13T09:27:58.876Z,18.84
2022-10-13T09:30:30.521Z,18.80
2022-10-13T09:33:09.146Z,18.79
2022-10-13T09:35:38.660Z,18.75
2022-10-13T09:38:09.289Z,18.74
2022-10-13T09:40:37.123Z,18.77
2022-10-13T09:43:17.418Z,18.67
2022-10-13T09:45:44.180Z,18.68
2022-10-13T09:48:22.787Z,18.71
2022-10-13T09:50:51.971Z,18.65
2022-10-13T09:53:24.436Z,18.56
2022-10-13T09:56:08.106Z,18.59
2022-10-13T09:58:42.404Z,18.90
2022-10-13T10:01:18.926Z,19.07
2022-10-13T10:03:46.459Z,19.44
2022-10-13T10:06:16.289Z,19.60
2022-10-13T10:09:07.852Z,19.68
2022-10-13T10:11:40.912Z,19.66
2022-10-13T10:14:27.585Z,19.49
2022-10-13T10:17:37.001Z,19.36
2022-10-13T10:20:38.671Z,19.21
2022-10-13T10:23:07.583Z,19.40
2022-10-13T10:26:05.194Z,19.50
2022-10-13T10:28:49.809Z,19.53
2022-10-13T10:31:39.692Z,19.36
2022-10-13T10:34:15.354Z,19.13
2022-10-13T10:37:04.921Z,18.93
2022-10-13T10:39:40.345Z,18.95
2022-10-13T10:42:39.196Z,19.05
2022-10-13T10:45:17.050Z,19.00
2022-10-13T10:47:47.871Z,18.93
2022-10-13T10:50:17.862Z,18.78
2022-10-13T10:53:15.990Z,18.51
2022-10-13T10:55:47.424Z,18.39
2022-10-13T10:58:13.903Z,18.42
2022-10-13T11:01:12.088Z,18.31
2022-10-13T11:04:17.146Z,18.28
2022-10-13T11:06:43.725Z,18.25
2022-10-13T11:09:11.765Z,18.36
2022-10-13T11:11:40.933Z,18.39
2022-10-13T11:14:07.381Z,18.33
2022-10-13T11:16:38.401Z,18.11
2022-10-13T11:19:09.008Z,18.10
2022-10-13T11:21:53.826Z,18.30
2022-10-13T11:24:53.770Z,18.22
2022-10-13T11:27:20.258Z,18.27
2022-10-13T11:29:46.911Z,18.49
2022-10-13T11:32:25.708Z,18.67
2022-10-13T11:35:13.429Z,18.69
2022-10-13T11:38:05.606Z,18.79
2022-10-13T11:40:35.813Z,18.84
2022-10-13T11:43:24.526Z,18.87
2022-10-13T11:46:21.985Z,18.84
2022-10-13T11:49:15.848Z,18.84
2022-10-13T11:52:20.375Z,18.85
2022-10-13T11:55:23.713Z,18.86
2022-10-13T11:57:50.269Z,18.99
2022-10-13T12:00:19.275Z,19.12
2022-10-13T12:02:51.576Z,19.17
2022-10-13T12:05:23.347Z,19.15
2022-10-13T12:07:52.189Z,19.12
2022-10-13T12:10:28.503Z,19.03
2022-10-13T12:12:55.734Z,18.83
2022-10-13T12:15:34.161Z,18.83
2022-10-13T12:18:01.595Z,18.83
2022-10-13T12:20:31.324Z,18.80
2022-10-13T12:22:58.290Z,18.84
2022-10-13T12:25:29.228Z,19.04
2022-10-13T12:27:59.844Z,19.41
2022-10-13T12:30:28.370Z,19.47
2022-10-13T12:32:57.040Z,19.33
2022-10-13T12:35:26.957Z,19.45
2022-10-13T12:37:55.472Z,19.35
2022-10-13T12:40:23.458Z,19.38
2022-10-13T12:42:50.878Z,19.07
2022-10-13T12:45:23.467Z,19.08
2022-10-13T12:47:52.245Z,19.04
2022-10-13T12:50:28.143Z,19.11
2022-10-13T12:53:03.606Z,19.05
2022-10-13T12:55:31.473Z,19.05
2022-10-13T12:57:58.301Z,19.27
2022-10-13T13:00:27.967Z,19.41
2022-10-13T13:02:57.416Z,19.60
2022-10-13T13:05:50.813Z,19.62
2022-10-13T13:08:27.209Z,19.70
2022-10-13T13:10:55.433Z,19.99
2022-10-13T13:13:23.809Z,20.18
2022-10-13T13:15:50.908Z,20.30
2022-10-13T13:18:29.548Z,20.26
2022-10-13T13:20:56.253Z,20.23
2022-10-13T13:23:23.674Z,20.22
2022-10-13T13:26:09.863Z,20.20
2022-10-13T13:28:36.791Z,20.21
2022-10-13T13:31:05.751Z,20.08
2022-10-13T13:33:33.625Z,19.99
2022-10-13T13:36:00.162Z,19.96
2022-10-13T13:38:26.952Z,19.90
2022-10-13T13:40:53.506Z,19.98
2022-10-13T13:43:20.080Z,20.13
2022-10-13T13:45:46.639Z,20.29
2022-10-13T13:48:13.293Z,20.22
2022-10-13T13:50:40.552Z,20.14
2022-10-13T13:53:09.846Z,20.10
2022-10-13T13:55:36.525Z,19.91
2022-10-13T13:58:03.377Z,19.89
2022-10-13T14:00:29.918Z,19.78
2022-10-13T14:02:57.412Z,19.59
2022-10-13T14:05:24.190Z,19.49
2022-10-13T14:07:53.781Z,19.35
2022-10-13T14:10:20.290Z,19.23
2022-10-13T14:12:46.796Z,19.16
2022-10-13T14:15:13.311Z,19.22
2022-10-13T14:17:39.802Z,19.05
2022-10-13T14:20:06.852Z,19.05
2022-10-13T14:22:33.360Z,19.00
2022-10-13T14:24:59.836Z,19.18
2022-10-13T14:27:26.346Z,19.21
2022-10-13T14:29:52.842Z,19.12
2022-10-13T14:32:19.596Z,18.88
2022-10-13T14:34:46.290Z,18.93
2022-10-13T14:37:12.932Z,18.93
2022-10-13T14:39:41.510Z,19.04
2022-10-13T14:42:09.811Z,19.08
2022-10-13T14:44:36.352Z,19.13
2022-10-13T14:47:03.140Z,19.19
2022-10-13T14:49:29.643Z,19.08
2022-10-13T14:51:56.245Z,19.04
2022-10-13T14:54:22.936Z,19.14
2022-10-13T14:56:49.672Z,19.24
2022-10-13T14:59:16.173Z,19.49
2022-10-13T15:01:43.240Z,19.50
2022-10-13T15:04:09.812Z,19.46
2022-10-13T15:06:39.557Z,19.42
2022-10-13T15:11:33.786Z,19.13
2022-10-13T15:14:00.375Z,19.10
2022-10-13T15:16:29.631Z,19.04
2022-10-13T15:18:56.616Z,18.82
2022-10-13T15:21:23.824Z,18.72
2022-10-13T15:23:50.509Z,18.74
2022-10-13T15:26:19.081Z,18.66
2022-10-13T15:28:48.433Z,18.60
2022-10-13T15:31:16.776Z,18.69
2022-10-13T15:33:45.260Z,18.80
2022-10-13T15:36:11.830Z,18.74
2022-10-13T15:38:38.390Z,18.62
2022-10-13T15:41:05.982Z,18.48
2022-10-13T15:43:32.655Z,18.39
2022-10-13T15:46:04.413Z,18.35
2022-10-13T15:48:31.796Z,18.16
2022-10-13T15:50:58.443Z,17.97
2022-10-13T15:53:25.382Z,17.74
2022-10-13T15:55:52.308Z,17.60
2022-10-13T15:58:19.191Z,17.44
2022-10-13T16:00:48.981Z,16.91
2022-10-13T16:03:18.183Z,17.14
2022-10-13T16:05:46.187Z,17.08
2022-10-13T16:08:13.458Z,16.87
2022-10-13T16:10:41.953Z,16.83
2022-10-13T16:13:12.412Z,16.87
2022-10-13T16:15:39.014Z,16.68
2022-10-13T16:18:05.736Z,16.80
2022-10-13T16:20:35.130Z,16.82
2022-10-13T16:23:03.197Z,16.76
2022-10-13T16:25:30.370Z,16.66
2022-10-13T16:27:56.887Z,16.58
2022-10-13T16:30:23.394Z,16.51
2022-10-13T16:32:49.943Z,16.42
2022-10-13T16:35:16.796Z,16.36
2022-10-13T16:37:43.576Z,16.41
2022-10-13T16:40:10.654Z,16.40
2022-10-13T16:42:37.355Z,16.30
2022-10-13T16:45:04.442Z,16.25
2022-10-13T16:47:31.266Z,16.35
2022-10-13T16:49:58.063Z,16.22
2022-10-13T16:52:24.685Z,16.27
2022-10-13T16:54:51.511Z,16.26
2022-10-13T16:57:18.502Z,16.23
2022-10-13T16:59:45.239Z,16.03
2022-10-13T17:02:15.549Z,16.06
2022-10-13T17:04:42.828Z,16.04
2022-10-13T17:07:09.602Z,16.01
2022-10-13T17:09:36.120Z,16.05
2022-10-13T17:12:03.828Z,16.02
2022-10-13T17:14:30.923Z,16.06
2022-10-13T17:16:58.327Z,16.12
2022-10-13T17:19:25.366Z,16.04
2022-10-13T17:21:51.955Z,16.10
2022-10-13T17:24:18.967Z,16.05
2022-10-13T17:26:45.657Z,15.99
2022-10-13T17:29:12.332Z,16.14
2022-10-13T17:31:38.840Z,16.12
2022-10-13T17:34:06.292Z,16.28
2022-10-13T17:36:34.282Z,16.27
2022-10-13T17:39:07.874Z,16.10
2022-10-13T17:41:34.908Z,15.98
2022-10-13T17:44:02.111Z,15.97
2022-10-13T17:46:36.758Z,16.15
2022-10-13T17:49:05.153Z,16.21
2022-10-13T17:51:31.680Z,16.16
2022-10-13T17:53:59.596Z,16.33
2022-10-13T17:56:26.780Z,16.39
2022-10-13T17:58:53.924Z,16.37
2022-10-13T18:01:34.008Z,16.11
2022-10-13T18:04:22.215Z,16.13
2022-10-13T18:06:48.777Z,15.85
2022-10-13T18:09:18.662Z,15.77
2022-10-13T18:11:50.188Z,15.63
2022-10-13T18:14:18.009Z,15.62
2022-10-13T18:16:44.685Z,15.82
2022-10-13T18:19:11.212Z,15.80
2022-10-13T18:21:37.818Z,15.84
2022-10-13T18:24:04.660Z,15.81
2022-10-13T18:26:34.980Z,16.14
2022-10-13T18:29:02.495Z,15.91
2022-10-13T18:31:31.740Z,15.90
2022-10-13T18:34:01.088Z,16.13
2022-10-13T18:36:34.143Z,16.01
2022-10-13T18:39:07.477Z,15.91
2022-10-13T18:41:36.279Z,15.98
2022-10-13T18:44:06.077Z,15.77
2022-10-13T18:46:34.058Z,15.72
2022-10-13T18:49:00.716Z,15.40
2022-10-13T18:51:33.418Z,15.50
2022-10-13T18:54:02.598Z,15.48
2022-10-13T18:56:30.521Z,15.39
2022-10-13T18:59:00.264Z,15.59
2022-10-13T19:01:31.125Z,15.75
2022-10-13T19:03:58.540Z,15.60
2022-10-13T19:06:27.145Z,15.54
2022-10-13T19:09:00.613Z,15.28
2022-10-13T19:11:29.044Z,15.14
2022-10-13T19:13:55.943Z,15.12
2022-10-13T19:16:24.943Z,15.10
2022-10-13T19:18:52.548Z,15.19
2022-10-13T19:21:20.707Z,15.08
2022-10-13T19:23:52.937Z,15.44
2022-10-13T19:26:25.295Z,15.20
2022-10-13T19:28:57.079Z,15.20
2022-10-13T19:31:25.795Z,15.03
2022-10-13T19:33:53.034Z,15.25
2022-10-13T19:36:28.049Z,15.46
2022-10-13T19:38:55.011Z,15.18
2022-10-13T19:41:22.521Z,15.25
2022-10-13T19:43:50.315Z,15.21
2022-10-13T19:46:18.377Z,15.21
2022-10-13T19:48:45.653Z,15.28
2022-10-13T19:51:13.232Z,15.30
2022-10-13T19:53:40.191Z,15.30
2022-10-13T19:56:07.667Z,15.21
2022-10-13T19:58:34.766Z,15.15
2022-10-13T20:01:04.427Z,15.14
2022-10-13T20:03:31.375Z,15.25
2022-10-13T20:05:57.941Z,15.30
2022-10-13T20:08:24.583Z,15.34
2022-10-13T20:10:51.275Z,15.19
2022-10-13T20:13:17.779Z,15.14
2022-10-13T20:15:44.356Z,15.05
2022-10-13T20:18:13.084Z,15.04
2022-10-13T20:20:41.023Z,15.16
2022-10-13T20:23:07.699Z,15.22
2022-10-13T20:25:38.087Z,14.95
2022-10-13T20:28:05.263Z,15.05
2022-10-13T20:30:32.311Z,15.07
2022-10-13T20:32:59.063Z,14.86
2022-10-13T20:35:25.760Z,15.03
2022-10-13T20:37:52.261Z,15.16
2022-10-13T20:40:19.015Z,15.11
2022-10-13T20:42:50.756Z,15.13
2022-10-13T20:45:19.174Z,15.06
2022-10-13T20:47:46.996Z,15.05
2022-10-13T20:50:14.445Z,14.97
2022-10-13T20:52:41.277Z,14.90
2022-10-13T20:55:08.246Z,14.81
2022-10-13T20:57:34.751Z,14.56
2022-10-13T21:00:01.357Z,14.37
2022-10-13T21:02:27.864Z,14.34
2022-10-13T21:04:54.339Z,14.33
2022-10-13T21:07:21.217Z,14.19
2022-10-13T21:09:53.483Z,14.41
2022-10-13T21:12:21.154Z,14.47
2022-10-13T21:14:47.652Z,14.54
2022-10-13T21:17:14.150Z,14.65
2022-10-13T21:19:40.684Z,14.41
2022-10-13T21:22:07.161Z,14.40
2022-10-13T21:24:33.770Z,14.36
2022-10-13T21:27:00.260Z,14.44
2022-10-13T21:29:26.875Z,14.65
2022-10-13T21:31:53.423Z,14.62
2022-10-13T21:34:19.922Z,14.56
2022-10-13T21:36:46.584Z,14.61
2022-10-13T21:39:13.389Z,14.54
2022-10-13T21:41:39.917Z,14.41
2022-10-13T21:44:06.431Z,14.43
2022-10-13T21:46:34.676Z,14.41
2022-10-13T21:49:04.613Z,14.27
2022-10-13T21:51:32.691Z,14.27
2022-10-13T21:54:05.904Z,14.33
2022-10-13T21:56:33.477Z,14.24
2022-10-13T21:59:00.511Z,14.49
2022-10-13T22:01:27.785Z,14.47
2022-10-13T22:03:56.934Z,14.63
2022-10-13T22:06:24.423Z,14.49
2022-10-13T22:08:52.563Z,14.58
2022-10-13T22:11:19.352Z,14.57
2022-10-13T22:13:46.671Z,14.54
2022-10-13T22:16:25.323Z,14.46
2022-10-13T22:18:53.583Z,14.41
2022-10-13T22:21:23.230Z,14.46
2022-10-13T22:23:50.259Z,14.80
2022-10-13T22:26:18.369Z,14.60
2022-10-13T22:28:45.009Z,14.57
2022-10-13T22:31:13.263Z,14.62
2022-10-13T22:33:41.648Z,14.50
2022-10-13T22:36:17.056Z,14.46
2022-10-13T22:38:45.633Z,14.62
2022-10-13T22:41:13.196Z,14.42
2022-10-13T22:43:39.763Z,14.51
2022-10-13T22:46:06.441Z,14.72
2022-10-13T22:48:36.969Z,14.69
2022-10-13T22:51:07.267Z,14.66
2022-10-13T22:53:34.460Z,14.62
2022-10-13T22:56:04.911Z,14.78
2022-10-13T22:58:31.428Z,14.42
2022-10-13T23:01:04.767Z,14.79
2022-10-13T23:03:31.402Z,14.68
2022-10-13T23:05:57.994Z,14.69
2022-10-13T23:08:24.527Z,14.71
2022-10-13T23:10:51.114Z,14.86
2022-10-13T23:13:17.614Z,14.78
2022-10-13T23:15:44.206Z,14.80
2022-10-13T23:18:10.730Z,14.75
2022-10-13T23:20:41.358Z,14.93
2022-10-13T23:23:08.087Z,15.08
2022-10-13T23:25:36.156Z,15.08
2022-10-13T23:28:03.365Z,14.96
2022-10-13T23:30:29.907Z,14.74
2022-10-13T23:32:56.454Z,14.84
2022-10-13T23:35:22.989Z,15.14
2022-10-13T23:37:52.734Z,15.00
2022-10-13T23:40:19.833Z,15.21
2022-10-13T23:42:46.386Z,15.18
2022-10-13T23:45:12.911Z,15.27
2022-10-13T23:47:39.436Z,15.21
2022-10-13T23:50:06.392Z,15.09
2022-10-13T23:52:32.916Z,15.27
2022-10-13T23:54:59.384Z,15.21
2022-10-13T23:57:25.846Z,15.30
2022-10-13T23:59:52.341Z,15.14
